createdAt,value
2017-09-30T00:00:31.244Z,14.48
2017-09-30T00:01:31.228Z,14.45
2017-09-30T00:02:31.204Z,14.41
2017-09-30T00:03:31.206Z,14.41
2017-09-30T00:04:31.177Z,14.32
2017-09-30T00:05:52.173Z,14.47
2017-09-30T00:06:31.147Z,14.33
2017-09-30T00:07:31.124Z,14.33
2017-09-30T00:08:31.115Z,14.36
2017-09-30T00:09:31.104Z,14.28
2017-09-30T00:10:31.100Z,14.33
2017-09-30T00:11:52.062Z,14.35
2017-09-30T00:12:31.045Z,14.30
2017-09-30T00:13:31.035Z,14.20
2017-09-30T00:14:31.000Z,14.23
2017-09-30T00:15:30.998Z,14.26
2017-09-30T00:16:30.983Z,14.15
2017-09-30T00:17:51.971Z,14.17
2017-09-30T00:18:30.955Z,14.25
2017-09-30T00:19:30.917Z,14.08
2017-09-30T00:20:30.903Z,14.11
2017-09-30T00:21:30.889Z,14.05
2017-09-30T00:22:30.862Z,14.11
2017-09-30T00:23:51.856Z,14.00
2017-09-30T00:24:30.831Z,14.10
2017-09-30T00:25:30.824Z,14.08
2017-09-30T00:26:30.808Z,14.15
2017-09-30T00:27:30.795Z,14.12
2017-09-30T00:28:30.766Z,14.12
2017-09-30T00:29:51.766Z,14.12
2017-09-30T00:30:30.724Z,14.15
2017-09-30T00:31:30.712Z,14.18
2017-09-30T00:32:30.694Z,14.18
2017-09-30T00:33:30.688Z,14.15
2017-09-30T00:34:30.677Z,14.20
2017-09-30T00:35:51.638Z,14.22
2017-09-30T00:36:30.615Z,14.18
2017-09-30T00:37:30.609Z,14.23
2017-09-30T00:38:30.581Z,14.23
2017-09-30T00:39:30.584Z,14.22
2017-09-30T00:40:30.553Z,14.23
2017-09-30T00:41:51.540Z,14.22
2017-09-30T00:42:30.518Z,14.23
2017-09-30T00:43:30.501Z,14.11
2017-09-30T00:44:30.509Z,14.11
2017-09-30T00:45:30.501Z,14.15
2017-09-30T00:46:30.464Z,14.18
2017-09-30T00:47:51.440Z,14.20
2017-09-30T00:48:30.415Z,14.12
2017-09-30T00:49:30.415Z,14.25
2017-09-30T00:50:30.383Z,14.18
2017-09-30T00:51:30.370Z,14.25
2017-09-30T00:52:30.352Z,14.12
2017-09-30T00:53:51.344Z,14.11
2017-09-30T00:54:30.313Z,14.20
2017-09-30T00:55:30.306Z,14.14
2017-09-30T00:56:30.274Z,14.14
2017-09-30T00:57:30.256Z,14.18
2017-09-30T00:58:30.241Z,14.23
2017-09-30T00:59:51.222Z,14.25
2017-09-30T01:00:30.217Z,14.22
2017-09-30T01:01:30.181Z,14.23
2017-09-30T01:02:30.167Z,14.25
2017-09-30T01:03:30.153Z,14.25
2017-09-30T01:04:30.131Z,14.33
2017-09-30T01:05:51.140Z,14.35
2017-09-30T01:06:30.115Z,14.28
2017-09-30T01:07:30.084Z,14.32
2017-09-30T01:08:30.075Z,14.32
2017-09-30T01:09:30.057Z,14.43
2017-09-30T01:10:30.028Z,14.30
2017-09-30T01:11:51.016Z,14.32
2017-09-30T01:12:29.991Z,14.29
2017-09-30T01:13:29.989Z,14.30
2017-09-30T01:14:29.966Z,14.44
2017-09-30T01:15:29.943Z,14.33
2017-09-30T01:16:29.931Z,14.37
2017-09-30T01:17:50.983Z,14.32
2017-09-30T01:18:29.893Z,14.44
2017-09-30T01:19:29.878Z,14.35
2017-09-30T01:20:29.875Z,14.33
2017-09-30T01:21:29.852Z,14.30
2017-09-30T01:22:29.816Z,14.36
2017-09-30T01:23:50.813Z,14.32
2017-09-30T01:24:29.783Z,14.23
2017-09-30T01:25:29.779Z,14.32
2017-09-30T01:26:29.751Z,14.23
2017-09-30T01:27:29.737Z,14.25
2017-09-30T01:28:29.724Z,14.18
2017-09-30T01:29:50.708Z,14.28
2017-09-30T01:30:29.685Z,14.25
2017-09-30T01:31:29.659Z,14.20
2017-09-30T01:32:29.652Z,14.20
2017-09-30T01:33:29.634Z,14.20
2017-09-30T01:34:29.613Z,14.17
2017-09-30T01:35:50.601Z,14.32
2017-09-30T01:36:29.589Z,14.30
2017-09-30T01:37:29.574Z,14.22
2017-09-30T01:38:29.554Z,14.30
2017-09-30T01:39:29.544Z,14.26
2017-09-30T01:40:29.512Z,14.33
2017-09-30T01:41:50.497Z,14.32
2017-09-30T01:42:29.467Z,14.32
2017-09-30T01:43:29.475Z,14.30
2017-09-30T01:44:29.453Z,14.30
2017-09-30T01:45:29.443Z,14.32
2017-09-30T01:46:29.416Z,14.30
2017-09-30T01:47:50.420Z,14.18
2017-09-30T01:48:29.379Z,14.23
2017-09-30T01:49:29.368Z,14.25
2017-09-30T01:50:29.358Z,14.22
2017-09-30T01:51:29.355Z,14.28
2017-09-30T01:52:29.302Z,14.20
2017-09-30T01:53:50.299Z,14.20
2017-09-30T01:54:29.270Z,14.22
2017-09-30T01:55:29.276Z,14.20
2017-09-30T01:56:29.229Z,14.29
2017-09-30T01:57:29.223Z,14.25
2017-09-30T01:58:29.202Z,14.18
2017-09-30T01:59:50.191Z,14.18
2017-09-30T02:00:29.162Z,14.20
2017-09-30T02:01:29.154Z,14.22
2017-09-30T02:02:29.140Z,14.25
2017-09-30T02:03:29.114Z,14.20
2017-09-30T02:04:29.123Z,14.23
2017-09-30T02:05:50.085Z,14.29
2017-09-30T02:06:29.101Z,14.30
2017-09-30T02:07:29.049Z,14.26
2017-09-30T02:08:29.035Z,14.35
2017-09-30T02:09:29.009Z,14.33
2017-09-30T02:10:28.997Z,14.35
2017-09-30T02:11:49.991Z,14.41
2017-09-30T02:12:28.955Z,14.43
2017-09-30T02:13:28.951Z,14.32
2017-09-30T02:14:28.930Z,14.45
2017-09-30T02:15:28.914Z,14.44
2017-09-30T02:16:28.904Z,14.53
2017-09-30T02:17:49.881Z,14.43
2017-09-30T02:18:28.857Z,14.48
2017-09-30T02:19:28.831Z,14.51
2017-09-30T02:20:28.820Z,14.48
2017-09-30T02:21:28.795Z,14.50
2017-09-30T02:22:28.776Z,14.48
2017-09-30T02:23:49.803Z,14.54
2017-09-30T02:24:28.756Z,14.50
2017-09-30T02:25:28.723Z,14.45
2017-09-30T02:26:28.716Z,14.55
2017-09-30T02:27:28.685Z,14.50
2017-09-30T02:28:28.679Z,14.50
2017-09-30T02:29:49.673Z,14.44
2017-09-30T02:30:28.644Z,14.47
2017-09-30T02:31:28.625Z,14.44
2017-09-30T02:32:28.609Z,14.43
2017-09-30T02:33:28.586Z,14.47
2017-09-30T02:34:28.580Z,14.48
2017-09-30T02:35:49.552Z,14.40
2017-09-30T02:36:28.533Z,14.41
2017-09-30T02:37:28.522Z,14.41
2017-09-30T02:38:28.505Z,14.44
2017-09-30T02:39:28.493Z,14.43
2017-09-30T02:40:28.486Z,14.43
2017-09-30T02:41:49.463Z,14.41
2017-09-30T02:42:28.453Z,14.47
2017-09-30T02:43:28.425Z,14.44
2017-09-30T02:44:28.415Z,14.48
2017-09-30T02:45:28.395Z,14.44
2017-09-30T02:46:28.377Z,14.44
2017-09-30T02:47:49.357Z,14.47
2017-09-30T02:48:28.346Z,14.47
2017-09-30T02:49:28.318Z,14.43
2017-09-30T02:50:28.295Z,14.40
2017-09-30T02:51:28.292Z,14.33
2017-09-30T02:52:28.257Z,14.30
2017-09-30T02:53:49.266Z,14.35
2017-09-30T02:54:28.227Z,14.35
2017-09-30T02:55:28.213Z,14.29
2017-09-30T02:56:28.198Z,14.23
2017-09-30T02:57:28.179Z,14.14
2017-09-30T02:58:28.161Z,14.10
2017-09-30T02:59:49.148Z,14.14
2017-09-30T03:00:28.129Z,14.04
2017-09-30T03:01:28.145Z,13.99
2017-09-30T03:02:28.087Z,13.96
2017-09-30T03:03:28.067Z,14.07
2017-09-30T03:04:28.047Z,13.89
2017-09-30T03:05:49.038Z,13.97
2017-09-30T03:06:28.042Z,13.85
2017-09-30T03:07:28.023Z,13.92
2017-09-30T03:08:27.980Z,13.86
2017-09-30T03:09:27.966Z,13.72
2017-09-30T03:10:27.948Z,13.75
2017-09-30T03:11:48.943Z,13.75
2017-09-30T03:12:27.909Z,13.77
2017-09-30T03:13:27.907Z,13.77
2017-09-30T03:14:27.891Z,13.74
2017-09-30T03:15:27.876Z,13.75
2017-09-30T03:16:27.845Z,13.78
2017-09-30T03:17:48.831Z,13.72
2017-09-30T03:18:27.821Z,13.65
2017-09-30T03:19:27.789Z,13.63
2017-09-30T03:20:27.799Z,13.59
2017-09-30T03:21:27.762Z,13.57
2017-09-30T03:22:27.775Z,13.50
2017-09-30T03:23:48.729Z,13.46
2017-09-30T03:24:27.709Z,13.52
2017-09-30T03:25:27.692Z,13.46
2017-09-30T03:26:27.675Z,13.38
2017-09-30T03:27:27.661Z,13.38
2017-09-30T03:28:27.639Z,13.41
2017-09-30T03:29:48.626Z,13.38
2017-09-30T03:30:27.601Z,13.39
2017-09-30T03:31:27.598Z,13.33
2017-09-30T03:32:27.574Z,13.35
2017-09-30T03:33:27.582Z,13.28
2017-09-30T03:34:27.543Z,13.30
2017-09-30T03:35:48.520Z,13.30
2017-09-30T03:36:27.511Z,13.23
2017-09-30T03:37:27.496Z,13.27
2017-09-30T03:38:27.471Z,13.19
2017-09-30T03:39:27.451Z,13.18
2017-09-30T03:40:27.459Z,13.20
2017-09-30T03:41:48.499Z,13.19
2017-09-30T03:42:27.400Z,13.09
2017-09-30T03:43:27.388Z,13.08
2017-09-30T03:44:27.368Z,13.08
2017-09-30T03:45:27.338Z,13.09
2017-09-30T03:46:27.326Z,13.11
2017-09-30T03:47:48.306Z,13.09
2017-09-30T03:48:27.315Z,13.03
2017-09-30T03:49:27.271Z,13.05
2017-09-30T03:50:27.258Z,13.12
2017-09-30T03:51:27.254Z,13.08
2017-09-30T03:52:27.248Z,13.09
2017-09-30T03:53:48.204Z,13.04
2017-09-30T03:54:27.194Z,13.05
2017-09-30T03:55:27.165Z,13.05
2017-09-30T03:56:27.142Z,12.94
2017-09-30T03:57:27.113Z,12.97
2017-09-30T03:58:27.097Z,12.95
2017-09-30T03:59:48.102Z,12.93
2017-09-30T04:00:27.138Z,12.94
2017-09-30T04:01:27.060Z,12.86
2017-09-30T04:02:27.068Z,12.93
2017-09-30T04:03:27.033Z,12.86
2017-09-30T04:04:27.014Z,12.82
2017-09-30T04:05:48.019Z,13.01
2017-09-30T04:06:26.967Z,12.97
2017-09-30T04:07:26.949Z,12.91
2017-09-30T04:08:26.933Z,12.83
2017-09-30T04:09:26.918Z,12.80
2017-09-30T04:10:26.941Z,12.78
2017-09-30T04:11:47.871Z,12.78
2017-09-30T04:12:26.848Z,12.67
2017-09-30T04:13:26.831Z,12.64
2017-09-30T04:14:26.814Z,12.62
2017-09-30T04:15:26.791Z,12.68
2017-09-30T04:16:26.788Z,12.55
2017-09-30T04:17:47.773Z,12.68
2017-09-30T04:18:26.742Z,12.54
2017-09-30T04:19:26.718Z,12.54
2017-09-30T04:20:26.694Z,12.50
2017-09-30T04:21:26.676Z,12.50
2017-09-30T04:22:26.663Z,12.55
2017-09-30T04:23:47.656Z,12.55
2017-09-30T04:24:26.622Z,12.50
2017-09-30T04:25:26.719Z,12.54
2017-09-30T04:26:26.589Z,12.54
2017-09-30T04:27:26.583Z,12.49
2017-09-30T04:28:26.563Z,12.50
2017-09-30T04:29:47.538Z,12.50
2017-09-30T04:30:26.531Z,12.50
2017-09-30T04:31:26.659Z,12.53
2017-09-30T04:32:26.500Z,12.54
2017-09-30T04:33:26.473Z,12.47
2017-09-30T04:34:26.468Z,12.55
2017-09-30T04:35:47.447Z,12.53
2017-09-30T04:36:26.610Z,12.55
2017-09-30T04:37:26.410Z,12.57
2017-09-30T04:38:26.404Z,12.57
2017-09-30T04:39:26.363Z,12.46
2017-09-30T04:40:26.330Z,12.46
2017-09-30T04:41:47.323Z,12.49
2017-09-30T04:42:26.287Z,12.45
2017-09-30T04:43:26.346Z,12.47
2017-09-30T04:44:26.265Z,12.55
2017-09-30T04:45:26.240Z,12.46
2017-09-30T04:46:26.245Z,12.50
2017-09-30T04:47:47.229Z,12.55
2017-09-30T04:48:26.186Z,12.57
2017-09-30T04:49:26.177Z,12.55
2017-09-30T04:50:26.223Z,12.64
2017-09-30T04:51:26.303Z,12.62
2017-09-30T04:52:26.117Z,12.57
2017-09-30T04:53:47.109Z,12.68
2017-09-30T04:54:26.082Z,12.70
2017-09-30T04:55:26.066Z,12.70
2017-09-30T04:56:26.044Z,12.78
2017-09-30T04:57:26.752Z,12.79
2017-09-30T04:58:26.020Z,12.85
2017-09-30T04:59:46.989Z,12.86
2017-09-30T05:00:25.985Z,12.86
2017-09-30T05:01:25.959Z,12.94
2017-09-30T05:02:26.517Z,12.94
2017-09-30T05:03:26.386Z,12.91
2017-09-30T05:04:26.391Z,12.97
2017-09-30T05:05:46.890Z,12.95
2017-09-30T05:06:25.907Z,12.94
2017-09-30T05:07:25.836Z,13.00
2017-09-30T05:08:25.841Z,12.98
2017-09-30T05:09:25.885Z,13.01
2017-09-30T05:10:26.254Z,13.04
2017-09-30T05:11:46.769Z,13.09
2017-09-30T05:12:25.756Z,13.12
2017-09-30T05:13:25.731Z,13.08
2017-09-30T05:14:25.721Z,13.11
2017-09-30T05:15:25.697Z,13.16
2017-09-30T05:16:25.709Z,13.20
2017-09-30T05:17:46.702Z,13.18
2017-09-30T05:18:25.657Z,13.28
2017-09-30T05:19:25.628Z,13.23
2017-09-30T05:20:25.667Z,13.30
2017-09-30T05:21:25.838Z,13.33
2017-09-30T05:22:25.585Z,13.38
2017-09-30T05:23:46.541Z,13.39
2017-09-30T05:24:25.532Z,13.37
2017-09-30T05:25:25.830Z,13.52
2017-09-30T05:26:25.558Z,13.46
2017-09-30T05:27:25.467Z,13.47
2017-09-30T05:28:25.458Z,13.52
2017-09-30T05:29:46.434Z,13.54
2017-09-30T05:30:25.415Z,13.47
2017-09-30T05:31:25.397Z,13.56
2017-09-30T05:32:25.378Z,13.68
2017-09-30T05:33:25.379Z,13.60
2017-09-30T05:34:25.353Z,13.70
2017-09-30T05:35:46.431Z,13.75
2017-09-30T05:36:25.312Z,13.71
2017-09-30T05:37:25.295Z,13.77
2017-09-30T05:38:25.282Z,13.75
2017-09-30T05:39:25.253Z,13.74
2017-09-30T05:40:25.239Z,13.85
2017-09-30T05:41:46.244Z,13.79
2017-09-30T05:42:25.197Z,13.81
2017-09-30T05:43:25.204Z,13.77
2017-09-30T05:44:25.168Z,13.79
2017-09-30T05:45:25.144Z,13.79
2017-09-30T05:46:25.137Z,13.75
2017-09-30T05:47:46.114Z,13.89
2017-09-30T05:48:25.107Z,13.86
2017-09-30T05:49:25.097Z,13.83
2017-09-30T05:50:25.057Z,13.87
2017-09-30T05:51:25.089Z,13.79
2017-09-30T05:52:25.020Z,13.85
2017-09-30T05:53:46.092Z,13.90
2017-09-30T05:54:25.076Z,13.79
2017-09-30T05:55:24.998Z,13.83
2017-09-30T05:56:24.996Z,13.99
2017-09-30T05:57:25.001Z,13.90
2017-09-30T05:58:24.962Z,13.90
2017-09-30T05:59:46.054Z,14.04
2017-09-30T06:00:24.904Z,14.00
2017-09-30T06:01:24.918Z,14.04
2017-09-30T06:02:24.889Z,14.11
2017-09-30T06:03:24.873Z,14.12
2017-09-30T06:04:24.846Z,14.14
2017-09-30T06:05:45.837Z,14.14
2017-09-30T06:06:24.851Z,14.22
2017-09-30T06:07:24.825Z,14.23
2017-09-30T06:08:24.799Z,14.26
2017-09-30T06:09:24.784Z,14.18
2017-09-30T06:10:24.806Z,14.22
2017-09-30T06:11:45.735Z,14.20
2017-09-30T06:12:24.692Z,14.20
2017-09-30T06:13:24.729Z,14.32
2017-09-30T06:14:24.732Z,14.32
2017-09-30T06:15:24.649Z,14.40
2017-09-30T06:16:24.633Z,14.44
2017-09-30T06:17:45.626Z,14.44
2017-09-30T06:18:24.602Z,14.48
2017-09-30T06:19:24.596Z,14.53
2017-09-30T06:20:24.586Z,14.55
2017-09-30T06:21:24.588Z,14.58
2017-09-30T06:22:24.527Z,14.60
2017-09-30T06:23:45.529Z,14.62
2017-09-30T06:24:24.494Z,14.78
2017-09-30T06:25:24.490Z,14.69
2017-09-30T06:26:24.478Z,14.79
2017-09-30T06:27:25.388Z,14.78
2017-09-30T06:28:24.429Z,14.79
2017-09-30T06:29:45.416Z,14.91
2017-09-30T06:30:24.458Z,14.82
2017-09-30T06:31:24.408Z,14.86
2017-09-30T06:32:24.353Z,14.92
2017-09-30T06:33:24.363Z,15.00
2017-09-30T06:34:24.334Z,14.96
2017-09-30T06:35:45.312Z,15.07
2017-09-30T06:36:24.316Z,15.10
2017-09-30T06:37:24.291Z,15.24
2017-09-30T06:38:24.320Z,15.22
2017-09-30T06:39:24.265Z,15.28
2017-09-30T06:40:24.226Z,15.36
2017-09-30T06:41:45.260Z,15.35
2017-09-30T06:42:24.182Z,15.33
2017-09-30T06:43:24.178Z,15.35
2017-09-30T06:44:24.163Z,15.49
2017-09-30T06:45:24.146Z,15.40
2017-09-30T06:46:24.223Z,15.52
2017-09-30T06:47:45.109Z,15.64
2017-09-30T06:48:24.083Z,15.70
2017-09-30T06:49:24.070Z,15.70
2017-09-30T06:50:24.063Z,15.65
2017-09-30T06:51:24.047Z,15.77
2017-09-30T06:52:24.038Z,15.79
2017-09-30T06:53:45.013Z,15.83
2017-09-30T06:54:23.979Z,15.88
2017-09-30T06:55:23.973Z,15.88
2017-09-30T06:56:23.991Z,15.98
2017-09-30T06:57:23.960Z,16.01
2017-09-30T06:58:23.919Z,16.01
2017-09-30T06:59:44.908Z,16.02
2017-09-30T07:00:23.910Z,16.16
2017-09-30T07:01:23.875Z,16.21
2017-09-30T07:02:23.876Z,16.17
2017-09-30T07:03:23.860Z,16.21
2017-09-30T07:04:23.823Z,16.15
2017-09-30T07:05:44.809Z,16.17
2017-09-30T07:06:23.785Z,16.29
2017-09-30T07:07:23.800Z,16.21
2017-09-30T07:08:23.746Z,16.32
2017-09-30T07:09:23.743Z,16.36
2017-09-30T07:10:23.719Z,16.35
2017-09-30T07:11:44.701Z,16.39
2017-09-30T07:12:23.669Z,16.36
2017-09-30T07:13:23.653Z,16.36
2017-09-30T07:14:23.640Z,16.32
2017-09-30T07:15:23.626Z,16.29
2017-09-30T07:16:23.610Z,16.24
2017-09-30T07:17:44.589Z,16.23
2017-09-30T07:18:23.571Z,16.21
2017-09-30T07:19:23.560Z,16.20
2017-09-30T07:20:23.544Z,16.16
2017-09-30T07:21:23.519Z,16.16
2017-09-30T07:22:23.494Z,16.04
2017-09-30T07:23:44.493Z,16.01
2017-09-30T07:24:23.472Z,16.00
2017-09-30T07:25:23.454Z,16.09
2017-09-30T07:26:23.432Z,16.08
2017-09-30T07:27:23.422Z,16.15
2017-09-30T07:28:23.411Z,16.16
2017-09-30T07:29:44.389Z,16.20
2017-09-30T07:30:23.396Z,16.29
2017-09-30T07:31:23.356Z,16.21
2017-09-30T07:32:23.335Z,16.20
2017-09-30T07:33:23.325Z,16.20
2017-09-30T07:34:23.313Z,16.31
2017-09-30T07:35:44.286Z,16.23
2017-09-30T07:36:23.266Z,16.23
2017-09-30T07:37:23.262Z,16.33
2017-09-30T07:38:23.255Z,16.39
2017-09-30T07:39:23.224Z,16.41
2017-09-30T07:40:23.207Z,16.39
2017-09-30T07:41:44.194Z,16.39
2017-09-30T07:42:23.183Z,16.39
2017-09-30T07:43:23.163Z,16.49
2017-09-30T07:44:23.170Z,16.49
2017-09-30T07:45:23.128Z,16.51
2017-09-30T07:46:23.116Z,16.57
2017-09-30T07:47:44.106Z,16.54
2017-09-30T07:48:23.080Z,16.66
2017-09-30T07:49:23.069Z,16.69
2017-09-30T07:50:23.051Z,16.83
2017-09-30T07:51:23.036Z,16.83
2017-09-30T07:52:23.019Z,16.96
2017-09-30T07:53:44.000Z,17.01
2017-09-30T07:54:22.996Z,17.15
2017-09-30T07:55:22.977Z,17.26
2017-09-30T07:56:22.966Z,17.29
2017-09-30T07:57:22.931Z,17.51
2017-09-30T07:58:22.926Z,17.63
2017-09-30T07:59:43.909Z,17.74
2017-09-30T08:00:22.894Z,17.86
2017-09-30T08:01:22.871Z,17.94
2017-09-30T08:02:22.851Z,18.19
2017-09-30T08:03:22.847Z,18.28
2017-09-30T08:04:23.484Z,18.37
2017-09-30T08:05:43.817Z,18.53
2017-09-30T08:06:22.812Z,18.75
2017-09-30T08:07:28.873Z,18.80
2017-09-30T08:08:22.943Z,18.93
2017-09-30T08:09:22.753Z,19.11
2017-09-30T08:10:22.742Z,19.16
2017-09-30T08:11:43.727Z,19.11
2017-09-30T08:12:22.709Z,19.19
2017-09-30T08:13:22.697Z,19.31
2017-09-30T08:14:22.677Z,19.31
2017-09-30T08:15:22.658Z,19.33
2017-09-30T08:16:22.649Z,19.47
2017-09-30T08:17:43.635Z,19.41
2017-09-30T08:18:22.624Z,19.48
2017-09-30T08:19:22.611Z,19.34
2017-09-30T08:20:22.590Z,19.41
2017-09-30T08:21:22.765Z,19.44
2017-09-30T08:22:22.683Z,19.48
2017-09-30T08:23:43.577Z,19.52
2017-09-30T08:24:22.542Z,19.48
2017-09-30T08:25:22.532Z,19.39
2017-09-30T08:26:22.516Z,19.47
2017-09-30T08:27:22.707Z,19.52
2017-09-30T08:28:22.495Z,19.45
2017-09-30T08:29:43.467Z,19.54
2017-09-30T08:30:22.451Z,19.47
2017-09-30T08:31:22.437Z,19.44
2017-09-30T08:32:22.428Z,19.37
2017-09-30T08:33:22.418Z,19.37
2017-09-30T08:34:22.397Z,19.34
2017-09-30T08:35:43.691Z,19.29
2017-09-30T08:36:22.369Z,19.29
2017-09-30T08:37:22.590Z,19.31
2017-09-30T08:38:23.266Z,19.44
2017-09-30T08:39:22.775Z,19.59
2017-09-30T08:40:23.707Z,19.91
2017-09-30T08:41:43.635Z,20.21
2017-09-30T08:42:22.913Z,20.32
2017-09-30T08:43:23.074Z,20.44
2017-09-30T08:44:22.300Z,20.62
2017-09-30T08:45:22.316Z,20.72
2017-09-30T08:46:22.291Z,20.95
2017-09-30T08:47:43.424Z,21.07
2017-09-30T08:48:22.236Z,21.24
2017-09-30T08:49:22.228Z,21.91
2017-09-30T08:50:22.258Z,22.60
2017-09-30T08:51:22.205Z,23.25
2017-09-30T08:52:22.392Z,23.87
2017-09-30T08:53:43.191Z,24.11
2017-09-30T08:54:22.158Z,24.03
2017-09-30T08:55:22.181Z,23.80
2017-09-30T08:56:22.138Z,23.59
2017-09-30T08:57:22.122Z,23.62
2017-09-30T08:58:22.130Z,23.95
2017-09-30T08:59:43.115Z,24.50
2017-09-30T09:00:22.082Z,25.26
2017-09-30T09:01:22.108Z,26.00
2017-09-30T09:02:22.062Z,26.63
2017-09-30T09:03:22.044Z,27.18
2017-09-30T09:04:22.039Z,27.65
2017-09-30T09:05:43.091Z,28.07
2017-09-30T09:06:22.025Z,28.48
2017-09-30T09:07:22.040Z,28.75
2017-09-30T09:08:22.000Z,29.07
2017-09-30T09:09:21.998Z,29.38
2017-09-30T09:10:22.028Z,29.71
2017-09-30T09:11:42.991Z,29.97
2017-09-30T09:12:21.971Z,30.13
2017-09-30T09:13:22.088Z,30.53
2017-09-30T09:14:21.958Z,30.75
2017-09-30T09:15:21.967Z,30.96
2017-09-30T09:16:21.959Z,31.07
2017-09-30T09:17:42.940Z,31.17
2017-09-30T09:18:21.924Z,31.43
2017-09-30T09:19:21.919Z,31.64
2017-09-30T09:20:21.949Z,31.93
2017-09-30T09:21:21.926Z,32.29
2017-09-30T09:22:21.936Z,32.56
2017-09-30T09:23:42.918Z,32.49
2017-09-30T09:24:21.897Z,32.26
2017-09-30T09:25:21.928Z,32.19
2017-09-30T09:26:21.901Z,32.08
2017-09-30T09:27:21.944Z,31.87
2017-09-30T09:28:21.932Z,31.89
2017-09-30T09:29:42.872Z,32.00
2017-09-30T09:30:21.860Z,32.09
2017-09-30T09:31:21.840Z,32.22
2017-09-30T09:32:21.850Z,32.12
2017-09-30T09:33:21.859Z,32.33
2017-09-30T09:34:21.839Z,32.37
2017-09-30T09:35:42.842Z,32.53
2017-09-30T09:36:21.856Z,32.71
2017-09-30T09:37:21.824Z,32.71
2017-09-30T09:38:21.839Z,32.87
2017-09-30T09:39:21.844Z,33.07
2017-09-30T09:40:21.804Z,33.27
2017-09-30T09:41:42.811Z,33.45
2017-09-30T09:42:21.799Z,33.61
2017-09-30T09:43:21.816Z,33.87
2017-09-30T09:44:21.796Z,34.08
2017-09-30T09:45:21.797Z,34.03
2017-09-30T09:46:21.792Z,34.02
2017-09-30T09:47:42.794Z,33.84
2017-09-30T09:48:21.817Z,33.74
2017-09-30T09:49:21.783Z,33.53
2017-09-30T09:50:21.799Z,33.65
2017-09-30T09:51:21.799Z,33.84
2017-09-30T09:52:21.764Z,33.84
2017-09-30T09:53:42.816Z,33.84
2017-09-30T09:54:21.776Z,33.89
2017-09-30T09:55:21.761Z,34.14
2017-09-30T09:56:21.774Z,34.13
2017-09-30T09:57:21.791Z,34.23
2017-09-30T09:58:21.767Z,34.42
2017-09-30T09:59:42.776Z,34.67
2017-09-30T10:00:21.777Z,34.89
2017-09-30T10:01:21.755Z,34.92
2017-09-30T10:02:21.771Z,35.11
2017-09-30T10:03:21.802Z,35.10
2017-09-30T10:04:21.831Z,35.18
2017-09-30T10:05:42.800Z,35.31
2017-09-30T10:06:21.763Z,35.55
2017-09-30T10:07:21.766Z,35.64
2017-09-30T10:08:21.811Z,35.86
2017-09-30T10:09:21.781Z,36.05
2017-09-30T10:10:21.763Z,35.97
2017-09-30T10:11:42.761Z,35.93
2017-09-30T10:12:21.789Z,36.02
2017-09-30T10:13:21.771Z,35.68
2017-09-30T10:14:21.759Z,35.34
2017-09-30T10:15:21.757Z,35.08
2017-09-30T10:16:21.743Z,35.11
2017-09-30T10:17:42.824Z,35.10
2017-09-30T10:18:21.735Z,35.11
2017-09-30T10:19:21.937Z,35.24
2017-09-30T10:20:21.738Z,35.04
2017-09-30T10:21:21.769Z,34.83
2017-09-30T10:22:21.745Z,34.80
2017-09-30T10:23:42.735Z,34.50
2017-09-30T10:24:21.745Z,34.64
2017-09-30T10:25:21.719Z,34.52
2017-09-30T10:26:21.783Z,34.67
2017-09-30T10:27:21.736Z,34.64
2017-09-30T10:28:21.762Z,34.40
2017-09-30T10:29:42.741Z,34.39
2017-09-30T10:30:21.903Z,34.54
2017-09-30T10:31:21.718Z,34.50
2017-09-30T10:32:21.731Z,33.95
2017-09-30T10:33:21.750Z,33.32
2017-09-30T10:34:21.739Z,33.02
2017-09-30T10:35:42.730Z,32.70
2017-09-30T10:36:21.725Z,32.29
2017-09-30T10:37:21.728Z,31.94
2017-09-30T10:38:21.758Z,31.65
2017-09-30T10:39:21.725Z,31.40
2017-09-30T10:40:21.709Z,31.09
2017-09-30T10:41:42.719Z,30.81
2017-09-30T10:42:21.703Z,30.48
2017-09-30T10:43:21.702Z,30.12
2017-09-30T10:44:21.706Z,29.94
2017-09-30T10:45:21.708Z,29.69
2017-09-30T10:46:21.694Z,29.65
2017-09-30T10:47:42.687Z,29.60
2017-09-30T10:48:21.768Z,29.54
2017-09-30T10:49:21.706Z,29.53
2017-09-30T10:50:21.679Z,29.41
2017-09-30T10:51:21.698Z,29.20
2017-09-30T10:52:21.742Z,29.07
2017-09-30T10:53:42.659Z,29.22
2017-09-30T10:54:21.648Z,29.34
2017-09-30T10:55:22.557Z,29.59
2017-09-30T10:56:21.666Z,30.02
2017-09-30T10:57:21.636Z,30.39
2017-09-30T10:58:21.649Z,30.70
2017-09-30T10:59:42.630Z,31.42
2017-09-30T11:00:21.684Z,32.08
2017-09-30T11:01:21.605Z,32.71
2017-09-30T11:02:21.611Z,33.49
2017-09-30T11:03:21.604Z,34.01
2017-09-30T11:04:21.603Z,34.25
2017-09-30T11:05:42.655Z,34.14
2017-09-30T11:06:22.008Z,33.53
2017-09-30T11:07:21.611Z,33.23
2017-09-30T11:08:21.588Z,32.97
2017-09-30T11:09:21.579Z,32.78
2017-09-30T11:10:21.583Z,33.04
2017-09-30T11:11:42.593Z,33.50
2017-09-30T11:12:21.569Z,34.03
2017-09-30T11:13:21.567Z,34.61
2017-09-30T11:14:21.569Z,35.10
2017-09-30T11:15:21.558Z,34.90
2017-09-30T11:16:21.567Z,34.47
2017-09-30T11:17:42.569Z,34.47
2017-09-30T11:18:21.543Z,34.89
2017-09-30T11:19:21.611Z,35.46
2017-09-30T11:20:21.544Z,35.76
2017-09-30T11:21:21.539Z,35.88
2017-09-30T11:22:21.570Z,36.18
2017-09-30T11:23:42.756Z,36.40
2017-09-30T11:24:21.762Z,36.35
2017-09-30T11:25:21.542Z,36.46
2017-09-30T11:26:21.569Z,36.72
2017-09-30T11:27:21.894Z,36.99
2017-09-30T11:28:21.901Z,36.99
2017-09-30T11:29:42.604Z,36.96
2017-09-30T11:30:21.556Z,36.68
2017-09-30T11:31:21.538Z,36.76
2017-09-30T11:32:21.544Z,37.13
2017-09-30T11:33:21.552Z,37.51
2017-09-30T11:34:21.705Z,38.04
2017-09-30T11:35:42.544Z,38.36
2017-09-30T11:36:21.526Z,38.64
2017-09-30T11:37:21.839Z,38.68
2017-09-30T11:38:21.532Z,38.87
2017-09-30T11:39:21.624Z,39.07
2017-09-30T11:40:21.528Z,38.95
2017-09-30T11:41:42.564Z,38.65
2017-09-30T11:42:21.585Z,38.46
2017-09-30T11:43:21.713Z,38.31
2017-09-30T11:44:21.675Z,37.99
2017-09-30T11:45:21.896Z,37.59
2017-09-30T11:46:21.564Z,36.86
2017-09-30T11:47:42.534Z,35.86
2017-09-30T11:48:21.655Z,35.45
2017-09-30T11:49:21.671Z,35.76
2017-09-30T11:50:21.567Z,36.01
2017-09-30T11:51:21.885Z,36.01
2017-09-30T11:52:21.766Z,35.66
2017-09-30T11:53:42.659Z,35.49
2017-09-30T11:54:21.562Z,35.33
2017-09-30T11:55:21.538Z,35.23
2017-09-30T11:56:21.728Z,35.23
2017-09-30T11:57:21.543Z,35.23
2017-09-30T11:58:21.582Z,35.46
2017-09-30T11:59:42.547Z,35.64
2017-09-30T12:00:21.699Z,36.01
2017-09-30T12:01:21.563Z,36.37
2017-09-30T12:02:21.528Z,36.74
2017-09-30T12:03:21.605Z,36.84
2017-09-30T12:04:21.615Z,36.80
2017-09-30T12:05:42.619Z,36.80
2017-09-30T12:06:21.587Z,37.20
2017-09-30T12:07:21.530Z,37.20
2017-09-30T12:08:21.528Z,36.99
2017-09-30T12:09:21.750Z,36.88
2017-09-30T12:10:21.534Z,36.77
2017-09-30T12:11:42.575Z,36.88
2017-09-30T12:12:21.550Z,36.98
2017-09-30T12:13:21.555Z,36.81
2017-09-30T12:14:21.542Z,36.65
2017-09-30T12:15:21.546Z,36.73
2017-09-30T12:16:22.083Z,36.72
2017-09-30T12:17:42.572Z,36.76
2017-09-30T12:18:21.531Z,36.68
2017-09-30T12:19:21.693Z,36.55
2017-09-30T12:20:21.518Z,36.51
2017-09-30T12:21:21.526Z,36.43
2017-09-30T12:22:21.532Z,36.59
2017-09-30T12:23:42.760Z,36.57
2017-09-30T12:24:21.528Z,36.40
2017-09-30T12:25:21.530Z,36.35
2017-09-30T12:26:21.528Z,36.37
2017-09-30T12:27:21.537Z,36.40
2017-09-30T12:28:21.525Z,36.30
2017-09-30T12:29:42.546Z,36.24
2017-09-30T12:30:21.525Z,36.05
2017-09-30T12:31:21.525Z,35.78
2017-09-30T12:32:21.530Z,35.76
2017-09-30T12:33:21.527Z,35.66
2017-09-30T12:34:21.540Z,35.53
2017-09-30T12:35:42.540Z,35.56
2017-09-30T12:36:21.739Z,35.29
2017-09-30T12:37:21.521Z,34.95
2017-09-30T12:38:21.523Z,34.92
2017-09-30T12:39:21.523Z,34.38
2017-09-30T12:40:21.539Z,34.03
2017-09-30T12:41:42.577Z,34.08
2017-09-30T12:42:21.514Z,34.30
2017-09-30T12:43:21.581Z,34.11
2017-09-30T12:44:21.505Z,33.96
2017-09-30T12:45:21.524Z,34.06
2017-09-30T12:46:21.718Z,33.95
2017-09-30T12:47:42.565Z,34.10
2017-09-30T12:48:21.500Z,34.14
2017-09-30T12:49:21.530Z,34.16
2017-09-30T12:50:21.496Z,34.30
2017-09-30T12:51:21.551Z,34.60
2017-09-30T12:52:21.506Z,34.83